createdAt,value
2023-09-15T00:01:35.709Z,3.55
2023-09-15T00:04:06.575Z,3.08
2023-09-15T00:06:34.084Z,2.90
2023-09-15T00:09:00.612Z,2.97
2023-09-15T00:11:40.536Z,3.00
2023-09-15T00:14:12.147Z,3.08
2023-09-15T00:16:39.969Z,2.85
2023-09-15T00:19:07.581Z,3.10
2023-09-15T00:21:34.591Z,2.88
2023-09-15T00:24:02.206Z,3.00
2023-09-15T00:26:31.774Z,2.85
2023-09-15T00:29:00.149Z,3.00
2023-09-15T00:31:27.173Z,2.88
2023-09-15T00:33:53.879Z,2.88
2023-09-15T00:36:20.595Z,3.10
2023-09-15T00:38:47.921Z,3.10
2023-09-15T00:41:16.785Z,3.08
2023-09-15T00:43:46.453Z,2.83
2023-09-15T00:46:15.654Z,3.55
2023-09-15T00:48:52.409Z,2.92
2023-09-15T00:51:25.728Z,3.10
2023-09-15T00:54:04.232Z,2.90
2023-09-15T00:56:34.197Z,3.20
2023-09-15T00:59:07.586Z,2.95
2023-09-15T01:01:41.136Z,3.00
2023-09-15T01:04:13.394Z,2.90
2023-09-15T01:06:44.239Z,2.90
2023-09-15T01:09:15.621Z,3.20
2023-09-15T01:11:53.504Z,3.00
2023-09-15T01:14:23.113Z,3.10
2023-09-15T01:17:04.318Z,3.00
2023-09-15T01:22:02.714Z,3.17
2023-09-15T01:24:33.058Z,3.33
2023-09-15T01:27:21.917Z,3.30
2023-09-15T01:29:59.371Z,2.78
2023-09-15T01:32:30.986Z,3.03
2023-09-15T01:35:09.948Z,2.70
2023-09-15T01:37:41.500Z,3.40
2023-09-15T01:40:12.090Z,2.90
2023-09-15T01:42:48.094Z,2.78
2023-09-15T01:45:17.641Z,3.22
2023-09-15T01:47:49.593Z,3.13
2023-09-15T01:50:17.958Z,3.35
2023-09-15T01:52:49.488Z,3.30
2023-09-15T01:55:17.280Z,3.47
2023-09-15T01:57:47.360Z,2.88
2023-09-15T02:00:18.312Z,3.15
2023-09-15T02:02:46.176Z,3.20
2023-09-15T02:05:23.151Z,3.42
2023-09-15T02:08:04.390Z,3.33
2023-09-15T02:10:39.266Z,3.40
2023-09-15T02:13:09.208Z,3.25
2023-09-15T02:15:36.743Z,3.30
2023-09-15T02:18:11.152Z,3.10
2023-09-15T02:20:40.972Z,3.42
2023-09-15T02:23:11.810Z,3.10
2023-09-15T02:25:42.724Z,3.38
2023-09-15T02:28:12.785Z,3.05
2023-09-15T02:30:44.192Z,3.00
2023-09-15T02:33:19.536Z,3.30
2023-09-15T02:36:03.923Z,3.13
2023-09-15T02:38:34.828Z,3.40
2023-09-15T02:41:08.096Z,3.28
2023-09-15T02:43:37.740Z,3.45
2023-09-15T02:46:08.353Z,3.42
2023-09-15T02:48:41.627Z,3.47
2023-09-15T02:51:15.459Z,3.22
2023-09-15T02:53:52.823Z,3.53
2023-09-15T02:56:26.383Z,3.78
2023-09-15T02:59:00.542Z,3.42
2023-09-15T03:01:30.779Z,3.47
2023-09-15T03:04:00.403Z,3.47
2023-09-15T03:06:30.179Z,3.70
2023-09-15T03:08:58.055Z,4.28
2023-09-15T03:11:27.793Z,3.30
2023-09-15T03:14:03.101Z,3.25
2023-09-15T03:16:31.514Z,3.70
2023-09-15T03:19:08.614Z,3.90
2023-09-15T03:21:36.641Z,3.42
2023-09-15T03:24:05.875Z,3.30
2023-09-15T03:26:33.701Z,3.50
2023-09-15T03:29:04.084Z,3.22
2023-09-15T03:31:31.651Z,3.53
2023-09-15T03:33:59.416Z,3.75
2023-09-15T03:36:39.615Z,3.50
2023-09-15T03:39:08.139Z,3.20
2023-09-15T03:41:35.857Z,3.13
2023-09-15T03:44:07.355Z,3.30
2023-09-15T03:46:36.603Z,3.30
2023-09-15T03:49:07.608Z,3.50
2023-09-15T03:51:37.609Z,3.47
2023-09-15T03:54:05.219Z,3.20
2023-09-15T03:56:35.907Z,3.42
2023-09-15T03:59:04.699Z,3.40
2023-09-15T04:01:34.821Z,3.20
2023-09-15T04:04:10.749Z,2.90
2023-09-15T04:06:37.874Z,2.90
2023-09-15T04:09:14.121Z,3.20
2023-09-15T04:14:15.836Z,3.13
2023-09-15T04:16:48.035Z,3.22
2023-09-15T04:19:15.717Z,3.40
2023-09-15T04:21:45.412Z,3.17
2023-09-15T04:24:16.072Z,3.25
2023-09-15T04:26:43.581Z,3.00
2023-09-15T04:29:12.124Z,2.95
2023-09-15T04:31:40.461Z,3.28
2023-09-15T04:34:08.643Z,3.30
2023-09-15T04:36:38.338Z,3.42
2023-09-15T04:39:06.828Z,3.42
2023-09-15T04:41:34.622Z,3.20
2023-09-15T04:46:32.705Z,3.33
2023-09-15T04:49:06.789Z,3.25
2023-09-15T04:51:42.781Z,3.20
2023-09-15T04:54:17.155Z,3.70
2023-09-15T04:56:49.783Z,3.17
2023-09-15T04:59:23.278Z,3.00
2023-09-15T05:01:53.911Z,3.70
2023-09-15T05:04:25.794Z,3.38
2023-09-15T05:07:05.063Z,3.20
2023-09-15T05:09:32.995Z,3.35
2023-09-15T05:12:06.147Z,3.45
2023-09-15T05:14:51.449Z,3.70
2023-09-15T05:17:46.084Z,2.90
2023-09-15T05:20:26.292Z,3.38
2023-09-15T05:23:02.454Z,3.25
2023-09-15T05:25:50.080Z,3.08
2023-09-15T05:28:19.414Z,3.30
2023-09-15T05:30:53.332Z,3.50
2023-09-15T05:33:26.480Z,3.97
2023-09-15T05:36:05.869Z,3.33
2023-09-15T05:38:36.323Z,3.70
2023-09-15T05:41:06.568Z,3.58
2023-09-15T05:43:36.944Z,3.60
2023-09-15T05:46:11.455Z,3.70
2023-09-15T05:48:39.666Z,3.75
2023-09-15T05:51:09.814Z,3.70
2023-09-15T05:53:39.676Z,3.42
2023-09-15T05:56:12.418Z,3.42
2023-09-15T05:58:39.631Z,3.10
2023-09-15T06:01:10.697Z,3.17
2023-09-15T06:03:46.756Z,4.10
2023-09-15T06:06:22.820Z,3.75
2023-09-15T06:08:55.396Z,3.65
2023-09-15T06:11:23.011Z,3.90
2023-09-15T06:13:56.274Z,3.42
2023-09-15T06:16:23.932Z,3.45
2023-09-15T06:18:54.825Z,3.30
2023-09-15T06:21:26.096Z,3.58
2023-09-15T06:26:19.230Z,3.75
2023-09-15T06:28:46.118Z,3.50
2023-09-15T06:31:12.856Z,3.50
2023-09-15T06:33:39.372Z,3.70
2023-09-15T06:36:20.150Z,3.53
2023-09-15T06:38:47.673Z,3.58
2023-09-15T06:41:15.227Z,4.15
2023-09-15T06:43:44.997Z,3.80
2023-09-15T06:46:12.578Z,3.92
2023-09-15T06:48:39.956Z,3.90
2023-09-15T06:51:07.514Z,4.20
2023-09-15T06:53:34.821Z,4.00
2023-09-15T06:56:02.091Z,4.03
2023-09-15T06:58:29.578Z,4.10
2023-09-15T07:03:28.026Z,3.58
2023-09-15T07:05:55.442Z,4.20
2023-09-15T07:08:22.425Z,3.78
2023-09-15T07:10:52.746Z,3.42
2023-09-15T07:13:20.197Z,3.40
2023-09-15T07:18:25.463Z,3.35
2023-09-15T07:21:06.185Z,3.55
2023-09-15T07:23:33.671Z,3.25
2023-09-15T07:26:01.416Z,3.30
2023-09-15T07:28:29.832Z,3.83
2023-09-15T07:31:06.421Z,3.75
2023-09-15T07:33:39.394Z,3.60
2023-09-15T07:36:13.149Z,4.30
2023-09-15T07:38:41.403Z,3.50
2023-09-15T07:41:15.177Z,3.50
2023-09-15T07:43:45.013Z,3.85
2023-09-15T07:46:15.549Z,4.10
2023-09-15T07:48:43.340Z,3.72
2023-09-15T07:51:13.349Z,3.72
2023-09-15T07:53:44.141Z,4.20
2023-09-15T07:56:27.419Z,3.40
2023-09-15T07:58:58.833Z,4.30
2023-09-15T08:01:29.119Z,4.50
2023-09-15T08:04:16.180Z,3.25
2023-09-15T08:07:00.908Z,3.50
2023-09-15T08:09:30.928Z,3.45
2023-09-15T08:12:01.034Z,3.13
2023-09-15T08:14:27.832Z,3.00
2023-09-15T08:16:54.468Z,2.55
2023-09-15T08:19:22.011Z,2.33
2023-09-15T08:24:15.169Z,2.50
2023-09-15T08:26:44.664Z,2.65
2023-09-15T08:29:13.049Z,2.47
2023-09-15T08:31:40.528Z,2.50
2023-09-15T08:34:07.133Z,2.40
2023-09-15T08:36:33.683Z,2.05
2023-09-15T08:39:00.179Z,2.10
2023-09-15T08:41:32.464Z,2.25
2023-09-15T08:43:59.562Z,2.42
2023-09-15T08:46:26.979Z,2.22
2023-09-15T08:48:57.331Z,2.35
2023-09-15T08:51:25.487Z,2.47
2023-09-15T08:53:57.567Z,2.30
2023-09-15T08:56:24.896Z,2.20
2023-09-15T09:01:19.585Z,2.20
2023-09-15T09:03:46.994Z,2.10
2023-09-15T09:06:14.732Z,2.10
2023-09-15T09:08:42.172Z,2.30
2023-09-15T09:11:09.270Z,2.13
2023-09-15T09:13:43.865Z,2.00
2023-09-15T09:16:14.408Z,2.20
2023-09-15T09:18:41.911Z,2.40
2023-09-15T09:21:09.361Z,2.00
2023-09-15T09:23:35.950Z,1.90
2023-09-15T09:26:11.236Z,2.13
2023-09-15T09:28:37.948Z,2.13
2023-09-15T09:31:05.167Z,2.00
2023-09-15T09:35:58.991Z,2.35
2023-09-15T09:38:26.548Z,2.13
2023-09-15T09:40:56.587Z,2.20
2023-09-15T09:43:23.150Z,2.33
2023-09-15T09:45:52.634Z,2.45
2023-09-15T09:48:19.396Z,2.10
2023-09-15T09:50:49.645Z,2.10
2023-09-15T09:53:16.308Z,2.10
2023-09-15T09:55:43.392Z,2.25
2023-09-15T09:58:13.873Z,2.20
2023-09-15T10:00:40.649Z,2.50
2023-09-15T10:03:07.370Z,2.25
2023-09-15T10:05:36.164Z,2.50
2023-09-15T10:08:03.753Z,2.40
2023-09-15T10:10:30.628Z,2.30
2023-09-15T10:12:57.492Z,2.20
2023-09-15T10:15:24.152Z,2.10
2023-09-15T10:17:51.890Z,2.25
2023-09-15T10:20:18.728Z,2.25
2023-09-15T10:22:46.498Z,2.25
2023-09-15T10:25:18.024Z,2.15
2023-09-15T10:27:45.558Z,2.30
2023-09-15T10:30:12.285Z,2.10
2023-09-15T10:32:39.684Z,2.20
2023-09-15T10:35:07.086Z,2.30
2023-09-15T10:37:34.986Z,2.30
2023-09-15T10:40:02.705Z,2.17
2023-09-15T10:42:29.455Z,2.17
2023-09-15T10:44:56.029Z,2.28
2023-09-15T10:47:22.622Z,2.10
2023-09-15T10:49:51.226Z,2.38
2023-09-15T10:52:18.095Z,2.38
2023-09-15T10:54:44.834Z,1.92
2023-09-15T10:57:11.624Z,2.40
2023-09-15T10:59:38.633Z,2.28
2023-09-15T11:02:06.015Z,2.10
2023-09-15T11:04:32.583Z,1.95
2023-09-15T11:07:00.294Z,2.45
2023-09-15T11:09:27.188Z,2.13
2023-09-15T11:11:53.978Z,2.08
2023-09-15T11:14:21.252Z,2.10
2023-09-15T11:16:51.325Z,2.20
2023-09-15T11:19:18.791Z,2.30
2023-09-15T11:21:46.251Z,1.98
2023-09-15T11:24:13.302Z,2.00
2023-09-15T11:26:47.157Z,2.00
2023-09-15T11:29:14.074Z,2.15
2023-09-15T11:31:40.811Z,2.20
2023-09-15T11:34:07.857Z,2.10
2023-09-15T11:36:37.272Z,2.03
2023-09-15T11:39:12.164Z,1.90
2023-09-15T11:41:54.801Z,1.80
2023-09-15T11:44:27.672Z,2.00
2023-09-15T11:46:56.730Z,1.95
2023-09-15T11:49:23.883Z,1.90
2023-09-15T11:51:50.752Z,1.92
2023-09-15T11:54:17.515Z,1.88
2023-09-15T11:56:47.021Z,1.85
2023-09-15T11:59:14.671Z,1.90
2023-09-15T12:01:41.730Z,1.98
2023-09-15T12:04:13.260Z,1.98
2023-09-15T12:06:42.077Z,1.80
2023-09-15T12:09:11.773Z,1.70
2023-09-15T12:11:41.219Z,1.90
2023-09-15T12:14:10.185Z,1.90
2023-09-15T12:16:38.243Z,1.98
2023-09-15T12:19:05.693Z,2.10
2023-09-15T12:24:13.125Z,1.80
2023-09-15T12:26:41.487Z,1.80
2023-09-15T12:29:08.024Z,1.80
2023-09-15T12:31:47.657Z,1.92
2023-09-15T12:34:21.526Z,1.90
2023-09-15T12:36:49.515Z,1.80
2023-09-15T12:39:16.624Z,1.92
2023-09-15T12:41:44.369Z,1.77
2023-09-15T12:44:11.718Z,1.90
2023-09-15T12:46:38.374Z,1.98
2023-09-15T12:49:05.314Z,2.00
2023-09-15T12:51:31.926Z,1.80
2023-09-15T12:53:58.473Z,2.00
2023-09-15T12:56:24.942Z,1.85
2023-09-15T12:58:54.482Z,1.80
2023-09-15T13:01:22.103Z,1.83
2023-09-15T13:03:49.101Z,1.67
2023-09-15T13:06:16.358Z,2.13
2023-09-15T13:08:43.521Z,2.00
2023-09-15T13:11:10.037Z,1.98
2023-09-15T13:13:36.608Z,2.08
2023-09-15T13:16:03.178Z,1.90
2023-09-15T13:18:29.792Z,2.10
2023-09-15T13:20:56.613Z,1.83
2023-09-15T13:23:23.284Z,1.95
2023-09-15T13:25:50.066Z,2.00
2023-09-15T13:28:17.135Z,2.00
2023-09-15T13:30:45.309Z,2.00
2023-09-15T13:33:12.116Z,2.00
2023-09-15T13:35:38.806Z,1.80
2023-09-15T13:38:05.543Z,2.00
2023-09-15T13:40:32.858Z,1.85
2023-09-15T13:42:59.763Z,1.80
2023-09-15T13:45:26.424Z,1.90
2023-09-15T13:47:53.039Z,1.85
2023-09-15T13:50:19.910Z,2.00
2023-09-15T13:52:48.080Z,1.90
2023-09-15T13:55:15.461Z,1.80
2023-09-15T13:57:42.015Z,2.13
2023-09-15T14:00:10.685Z,1.80
2023-09-15T14:02:39.632Z,1.75
2023-09-15T14:05:07.569Z,2.05
2023-09-15T14:07:35.895Z,2.00
2023-09-15T14:10:02.495Z,1.98
2023-09-15T14:12:29.573Z,1.90
2023-09-15T14:14:56.072Z,1.70
2023-09-15T14:17:24.459Z,1.90
2023-09-15T14:19:50.934Z,1.83
2023-09-15T14:22:17.429Z,2.10
2023-09-15T14:24:44.128Z,2.00
2023-09-15T14:27:10.802Z,1.90
2023-09-15T14:29:37.610Z,1.95
2023-09-15T14:32:04.793Z,1.88
2023-09-15T14:34:31.355Z,1.95
2023-09-15T14:37:01.327Z,1.90
2023-09-15T14:39:28.892Z,2.00
2023-09-15T14:41:55.864Z,2.00
2023-09-15T14:44:23.140Z,2.20
2023-09-15T14:46:49.857Z,1.92
2023-09-15T14:49:16.666Z,2.28
2023-09-15T14:51:43.283Z,2.10
2023-09-15T14:54:10.193Z,2.38
2023-09-15T14:59:03.468Z,2.60
2023-09-15T15:03:56.770Z,2.67
2023-09-15T15:06:23.473Z,2.20
2023-09-15T15:08:50.454Z,2.60
2023-09-15T15:11:17.317Z,2.30
2023-09-15T15:13:43.916Z,2.40
2023-09-15T15:16:12.497Z,2.25
2023-09-15T15:18:39.334Z,2.45
2023-09-15T15:21:05.870Z,2.10
2023-09-15T15:23:32.439Z,2.10
2023-09-15T15:26:05.401Z,2.45
2023-09-15T15:28:32.230Z,2.30
2023-09-15T15:30:58.921Z,2.42
2023-09-15T15:33:25.915Z,2.30
2023-09-15T15:35:59.932Z,2.20
2023-09-15T15:38:26.579Z,2.35
2023-09-15T15:40:53.225Z,2.03
2023-09-15T15:43:19.869Z,2.20
2023-09-15T15:45:56.794Z,2.17
2023-09-15T15:48:24.412Z,2.20
2023-09-15T15:50:51.421Z,2.30
2023-09-15T15:55:44.551Z,1.90
2023-09-15T15:58:11.555Z,1.95
2023-09-15T16:00:38.686Z,2.20
2023-09-15T16:03:05.420Z,2.20
2023-09-15T16:05:32.078Z,2.28
2023-09-15T16:07:58.599Z,1.92
2023-09-15T16:10:25.136Z,2.47
2023-09-15T16:12:51.692Z,1.90
2023-09-15T16:15:18.246Z,2.17
2023-09-15T16:17:45.262Z,2.17
2023-09-15T16:20:12.055Z,1.92
2023-09-15T16:22:39.386Z,1.95
2023-09-15T16:25:10.501Z,2.20
2023-09-15T16:27:37.113Z,1.88
2023-09-15T16:30:04.337Z,2.28
2023-09-15T16:32:32.235Z,1.85
2023-09-15T16:34:59.923Z,2.15
2023-09-15T16:37:26.742Z,1.98
2023-09-15T16:39:53.678Z,1.90
2023-09-15T16:42:22.629Z,1.80
2023-09-15T16:44:49.146Z,2.17
2023-09-15T16:47:15.678Z,2.60
2023-09-15T16:49:42.286Z,2.22
2023-09-15T16:52:08.787Z,2.28
2023-09-15T16:54:35.558Z,2.15
2023-09-15T16:57:04.042Z,2.33
2023-09-15T16:59:30.600Z,2.10
2023-09-15T17:01:59.202Z,2.10
2023-09-15T17:04:25.963Z,2.17
2023-09-15T17:06:52.586Z,2.03
2023-09-15T17:09:19.192Z,2.40
2023-09-15T17:11:45.866Z,2.20
2023-09-15T17:14:12.858Z,2.25
2023-09-15T17:16:39.605Z,2.17
2023-09-15T17:19:07.760Z,2.20
2023-09-15T17:21:34.469Z,2.10
2023-09-15T17:24:01.070Z,2.33
2023-09-15T17:26:27.633Z,2.10
2023-09-15T17:28:54.304Z,1.92
2023-09-15T17:31:22.008Z,2.40
2023-09-15T17:33:49.317Z,2.15
2023-09-15T17:36:15.952Z,2.20
2023-09-15T17:38:42.973Z,2.17
2023-09-15T17:41:09.913Z,2.08
2023-09-15T17:43:36.858Z,2.17
2023-09-15T17:46:04.427Z,2.20
2023-09-15T17:48:31.058Z,2.50
2023-09-15T17:50:58.684Z,2.13
2023-09-15T17:53:25.267Z,2.15
2023-09-15T17:55:52.528Z,2.30
2023-09-15T18:00:45.431Z,2.05
2023-09-15T18:03:12.013Z,2.20
2023-09-15T18:05:39.039Z,2.35
2023-09-15T18:08:05.650Z,2.40
2023-09-15T18:10:32.200Z,2.35
2023-09-15T18:12:58.982Z,2.45
2023-09-15T18:15:25.663Z,2.47
2023-09-15T18:17:52.311Z,2.05
2023-09-15T18:20:19.113Z,2.60
2023-09-15T18:22:46.114Z,2.60
2023-09-15T18:25:13.197Z,2.60
2023-09-15T18:30:07.820Z,2.50
2023-09-15T18:32:34.384Z,2.38
2023-09-15T18:35:00.988Z,2.50
2023-09-15T18:37:27.470Z,2.42
2023-09-15T18:39:54.076Z,2.65
2023-09-15T18:42:21.290Z,2.60
2023-09-15T18:44:48.143Z,2.90
2023-09-15T18:47:15.341Z,2.60
2023-09-15T18:49:41.967Z,2.65
2023-09-15T18:52:08.440Z,2.60
2023-09-15T18:54:36.780Z,2.70
2023-09-15T18:57:03.564Z,2.80
2023-09-15T18:59:30.075Z,2.30
2023-09-15T19:01:56.519Z,2.63
2023-09-15T19:04:23.068Z,2.58
2023-09-15T19:06:53.003Z,2.35
2023-09-15T19:09:19.612Z,2.22
2023-09-15T19:11:46.300Z,2.60
2023-09-15T19:14:12.801Z,2.90
2023-09-15T19:16:39.460Z,2.55
2023-09-15T19:19:06.265Z,2.50
2023-09-15T19:21:32.893Z,2.20
2023-09-15T19:23:59.526Z,2.80
2023-09-15T19:26:26.204Z,2.50
2023-09-15T19:28:52.776Z,2.72
2023-09-15T19:31:20.340Z,2.70
2023-09-15T19:33:47.310Z,2.70
2023-09-15T19:36:14.016Z,2.47
2023-09-15T19:38:40.923Z,2.20
2023-09-15T19:41:07.438Z,2.58
2023-09-15T19:43:33.942Z,2.80
2023-09-15T19:48:28.573Z,2.47
2023-09-15T19:50:55.143Z,2.70
2023-09-15T19:53:21.757Z,2.30
2023-09-15T19:55:48.265Z,2.50
2023-09-15T19:58:16.599Z,2.60
2023-09-15T20:00:43.230Z,2.72
2023-09-15T20:03:10.469Z,2.60
2023-09-15T20:05:41.711Z,2.53
2023-09-15T20:08:08.437Z,2.65
2023-09-15T20:10:35.052Z,2.58
2023-09-15T20:13:01.627Z,3.90
2023-09-15T20:15:28.697Z,4.30
2023-09-15T20:17:57.275Z,4.45
2023-09-15T20:20:25.963Z,4.47
2023-09-15T20:22:52.541Z,4.50
2023-09-15T20:25:19.077Z,3.83
2023-09-15T20:27:45.735Z,3.80
2023-09-15T20:30:14.425Z,4.30
2023-09-15T20:32:43.123Z,4.57
2023-09-15T20:35:10.425Z,4.40
2023-09-15T20:40:03.735Z,4.30
2023-09-15T20:42:30.352Z,4.13
2023-09-15T20:44:57.503Z,4.47
2023-09-15T20:49:50.674Z,4.22
2023-09-15T20:52:17.322Z,3.90
2023-09-15T20:54:44.435Z,3.60
2023-09-15T20:57:10.988Z,3.40
2023-09-15T20:59:37.603Z,3.60
2023-09-15T21:02:04.460Z,3.58
2023-09-15T21:04:31.142Z,4.03
2023-09-15T21:06:57.913Z,3.20
2023-09-15T21:09:24.969Z,3.50
2023-09-15T21:11:51.765Z,3.25
2023-09-15T21:14:18.521Z,3.35
2023-09-15T21:16:45.180Z,3.42
2023-09-15T21:19:12.319Z,3.10
2023-09-15T21:21:39.183Z,3.50
2023-09-15T21:24:05.945Z,3.15
2023-09-15T21:26:32.492Z,3.35
2023-09-15T21:28:59.777Z,3.35
2023-09-15T21:33:54.762Z,3.10
2023-09-15T21:36:21.759Z,3.42
2023-09-15T21:38:49.539Z,3.10
2023-09-15T21:41:16.823Z,2.70
2023-09-15T21:43:43.615Z,3.85
2023-09-15T21:46:10.247Z,3.15
2023-09-15T21:48:38.779Z,2.95
2023-09-15T21:51:06.088Z,3.20
2023-09-15T21:56:00.475Z,2.70
2023-09-15T21:58:27.263Z,2.80
2023-09-15T22:00:54.039Z,2.80
2023-09-15T22:03:20.997Z,2.90
2023-09-15T22:05:47.702Z,2.75
2023-09-15T22:08:14.641Z,2.72
2023-09-15T22:10:41.320Z,2.90
2023-09-15T22:13:08.642Z,2.78
2023-09-15T22:18:01.878Z,2.83
2023-09-15T22:20:28.563Z,2.90
2023-09-15T22:22:56.684Z,2.70
2023-09-15T22:25:25.441Z,2.65
2023-09-15T22:27:53.193Z,2.63
2023-09-15T22:30:21.301Z,2.72
2023-09-15T22:32:48.501Z,2.67
2023-09-15T22:35:17.993Z,2.90
2023-09-15T22:37:45.144Z,2.38
2023-09-15T22:40:12.408Z,3.10
2023-09-15T22:42:40.291Z,2.67
2023-09-15T22:45:13.645Z,2.70
2023-09-15T22:47:40.681Z,2.50
2023-09-15T22:50:09.287Z,2.80
2023-09-15T22:52:36.062Z,2.75
2023-09-15T22:55:03.497Z,2.53
2023-09-15T22:57:30.172Z,2.92
2023-09-15T22:59:56.968Z,2.60
2023-09-15T23:02:24.741Z,2.67
2023-09-15T23:04:54.542Z,2.60
2023-09-15T23:07:21.105Z,2.65
2023-09-15T23:09:47.715Z,2.63
2023-09-15T23:12:14.675Z,2.33
2023-09-15T23:14:42.459Z,2.60
2023-09-15T23:17:09.841Z,2.55
2023-09-15T23:22:02.981Z,2.50
2023-09-15T23:24:29.917Z,2.40
2023-09-15T23:26:56.587Z,2.50
2023-09-15T23:29:23.216Z,2.30
2023-09-15T23:31:50.734Z,2.60
2023-09-15T23:34:17.809Z,2.50
2023-09-15T23:36:45.044Z,2.40
2023-09-15T23:41:39.390Z,2.65
2023-09-15T23:44:05.964Z,2.72
2023-09-15T23:46:32.982Z,2.63
2023-09-15T23:49:00.053Z,2.63
2023-09-15T23:51:26.958Z,2.58
2023-09-15T23:53:53.598Z,3.00
2023-09-15T23:56:20.102Z,2.60
2023-09-15T23:58:46.965Z,2.72
